Time;durP1;ratioP1;P1;durP2;ratioP2;P2;SDS_P1;SDS_P2;PMS_P1;PMS_P2;Temp;Humidity;BMP_temperature;BMP_pressure;BME280_temperature;BME280_humidity;BME280_pressure;Samples;Min_cycle;Max_cycle;Signal;HPM_P1;HPM_P2
2023/07/04 00:01:16;;;;;;;8.45;2.17;;;17.60;95.90;;;;;;4935295;29;20130;-54
2023/07/04 00:03:44;;;;;;;5.67;1.40;;;17.50;95.90;;;;;;4935167;29;20448;-53
2023/07/04 00:06:12;;;;;;;5.22;1.70;;;17.50;96.00;;;;;;4935117;29;20397;-56
2023/07/04 00:08:38;;;;;;;7.20;1.40;;;17.50;96.20;;;;;;4935462;29;20214;-57
2023/07/04 00:11:06;;;;;;;4.70;1.27;;;17.40;96.40;;;;;;4935157;29;20484;-54
2023/07/04 00:13:33;;;;;;;6.68;1.50;;;17.40;96.40;;;;;;4934442;29;20043;-56
2023/07/04 00:15:59;;;;;;;4.88;1.35;;;17.40;96.60;;;;;;4935122;29;20036;-59
2023/07/04 00:18:27;;;;;;;4.95;1.30;;;17.40;96.50;;;;;;4900261;29;1039939;-55
2023/07/04 00:20:55;;;;;;;4.75;1.23;;;17.40;96.70;;;;;;4936364;29;20028;-57
2023/07/04 00:23:22;;;;;;;6.30;1.58;;;17.40;96.90;;;;;;4935801;29;20206;-57
2023/07/04 00:25:48;;;;;;;6.85;1.65;;;17.30;97.00;;;;;;4936053;29;20395;-58
2023/07/04 00:28:14;;;;;;;5.13;1.42;;;17.30;97.10;;;;;;4935951;29;20059;-53
2023/07/04 00:30:39;;;;;;;8.55;1.60;;;17.30;97.20;;;;;;4934732;29;20078;-59
2023/07/04 00:33:05;;;;;;;5.50;1.52;;;17.30;97.40;;;;;;4934002;29;20028;-55
2023/07/04 00:35:31;;;;;;;3.78;1.60;;;17.20;97.60;;;;;;4918674;29;20024;-58
2023/07/04 00:37:58;;;;;;;5.82;1.25;;;17.20;97.60;;;;;;4935927;29;20035;-58
2023/07/04 00:40:26;;;;;;;6.90;2.28;;;17.20;97.80;;;;;;4934351;29;20024;-58
2023/07/04 00:42:56;;;;;;;6.13;2.15;;;17.10;97.90;;;;;;4933946;29;20039;-54
2023/07/04 00:45:23;;;;;;;7.22;1.73;;;17.10;97.90;;;;;;4918668;29;20036;-57
2023/07/04 00:47:54;;;;;;;2.45;1.20;;;17.10;98.10;;;;;;4935832;29;20473;-56
2023/07/04 00:50:25;;;;;;;4.65;1.42;;;17.10;98.30;;;;;;4934407;29;20028;-56
2023/07/04 00:52:53;;;;;;;6.55;1.35;;;17.00;98.30;;;;;;4934059;28;20028;-57
2023/07/04 00:55:19;;;;;;;4.03;1.40;;;17.00;98.60;;;;;;4934387;29;20043;-58
2023/07/04 00:57:47;;;;;;;9.10;1.60;;;17.00;98.60;;;;;;4935525;29;20055;-58
2023/07/04 01:00:19;;;;;;;7.25;1.50;;;17.00;98.70;;;;;;4935508;29;20067;-58
2023/07/04 01:02:52;;;;;;;6.72;1.63;;;17.00;98.80;;;;;;4935123;29;20044;-55
2023/07/04 01:05:25;;;;;;;5.97;1.60;;;16.90;98.90;;;;;;4935760;29;20043;-57
2023/07/04 01:07:58;;;;;;;4.10;1.50;;;16.90;99.10;;;;;;4934366;29;20062;-54
2023/07/04 01:10:33;;;;;;;4.40;1.27;;;16.90;99.20;;;;;;4934305;29;20087;-57
2023/07/04 01:13:00;;;;;;;4.93;1.85;;;16.80;99.20;;;;;;4934676;29;20095;-58
2023/07/04 01:15:29;;;;;;;4.38;1.50;;;16.80;99.40;;;;;;4933910;29;20095;-55
2023/07/04 01:17:56;;;;;;;;;;;16.70;99.60;;;;;;4934261;29;20035;-58
2023/07/04 01:20:23;;;;;;;4.72;1.48;;;16.60;99.70;;;;;;4933748;29;19917;-58
2023/07/04 01:23:30;;;;;;;9.90;1.60;;;16.60;99.90;;;;;;4934673;29;20484;-59
2023/07/04 01:26:15;;;;;;;6.07;1.60;;;16.60;99.90;;;;;;4898452;29;20071;-58
2023/07/04 01:28:41;;;;;;;5.80;2.20;;;16.60;99.90;;;;;;4933821;29;20058;-58
2023/07/04 01:31:07;;;;;;;4.00;1.58;;;16.50;99.90;;;;;;4935072;29;20306;-57
2023/07/04 01:33:33;;;;;;;5.97;1.45;;;16.50;99.90;;;;;;4934426;29;20593;-58
2023/07/04 01:35:59;;;;;;;5.10;1.80;;;16.50;99.90;;;;;;4935140;29;20039;-55
2023/07/04 01:38:24;;;;;;;5.40;1.50;;;16.50;99.90;;;;;;4933495;29;20461;-56
2023/07/04 01:40:50;;;;;;;8.00;2.55;;;16.50;99.90;;;;;;4933645;29;20040;-58
2023/07/04 01:43:17;;;;;;;3.90;1.60;;;16.50;99.90;;;;;;4933016;29;20075;-59
2023/07/04 01:45:45;;;;;;;5.30;1.40;;;16.50;99.90;;;;;;4934974;29;20055;-59
2023/07/04 01:48:12;;;;;;;6.63;1.55;;;16.50;99.90;;;;;;4935032;29;20038;-56
2023/07/04 01:50:38;;;;;;;5.57;1.73;;;16.50;99.90;;;;;;4932660;29;20039;-59
2023/07/04 01:53:04;;;;;;;9.93;1.85;;;16.50;99.90;;;;;;4932759;29;20106;-59
2023/07/04 01:55:29;;;;;;;8.50;2.05;;;16.50;99.90;;;;;;4917405;29;20032;-59
2023/07/04 01:57:56;;;;;;;6.90;1.45;;;16.40;99.90;;;;;;4934350;29;20027;-59
2023/07/04 02:00:22;;;;;;;9.32;2.03;;;16.40;99.90;;;;;;4933149;29;20400;-58
2023/07/04 02:02:54;;;;;;;7.15;1.90;;;16.30;99.90;;;;;;4933933;29;20067;-58
2023/07/04 02:05:19;;;;;;;4.47;1.40;;;16.30;99.90;;;;;;4917299;29;20445;-58
2023/07/04 02:07:47;;;;;;;5.45;1.55;;;16.30;99.90;;;;;;4934259;29;20493;-58
2023/07/04 02:10:13;;;;;;;8.10;1.67;;;16.20;99.90;;;;;;4932962;29;20095;-55
2023/07/04 02:12:38;;;;;;;6.07;1.58;;;16.20;99.90;;;;;;4932586;29;20082;-57
2023/07/04 02:15:06;;;;;;;11.77;2.45;;;16.10;99.90;;;;;;4933984;29;20403;-58
2023/07/04 02:17:32;;;;;;;8.15;1.85;;;16.00;99.90;;;;;;4932817;29;20039;-54
2023/07/04 02:19:58;;;;;;;8.50;1.98;;;16.00;99.90;;;;;;4933554;29;20043;-58
2023/07/04 02:22:23;;;;;;;6.53;1.63;;;15.90;99.90;;;;;;4917174;29;20035;-59
2023/07/04 02:24:49;;;;;;;6.05;1.50;;;16.00;99.90;;;;;;4933812;29;20359;-57
2023/07/04 02:27:16;;;;;;;12.48;2.42;;;15.90;99.90;;;;;;4932716;29;20023;-58
2023/07/04 02:29:46;;;;;;;7.55;1.75;;;15.90;99.90;;;;;;4932698;29;20042;-58
2023/07/04 02:32:12;;;;;;;5.90;1.58;;;15.90;99.90;;;;;;4932206;28;20114;-57
2023/07/04 02:34:38;;;;;;;5.75;1.30;;;15.90;99.90;;;;;;4933661;29;20469;-58
2023/07/04 02:37:04;;;;;;;7.82;1.92;;;15.90;99.90;;;;;;4932503;29;20031;-59
2023/07/04 02:39:30;;;;;;;6.65;1.40;;;15.80;99.90;;;;;;4932402;29;20417;-55
2023/07/04 02:41:56;;;;;;;6.05;1.90;;;15.80;99.90;;;;;;4932173;29;20036;-56
2023/07/04 02:44:22;;;;;;;6.22;1.73;;;15.90;99.90;;;;;;4932222;29;20028;-57
2023/07/04 02:46:48;;;;;;;8.48;1.55;;;15.80;99.90;;;;;;4932364;29;20193;-55
2023/07/04 02:49:14;;;;;;;6.20;1.85;;;15.80;99.90;;;;;;4932487;29;20059;-55
2023/07/04 02:51:40;;;;;;;9.15;2.40;;;15.70;99.90;;;;;;4932312;29;20098;-56
2023/07/04 02:54:06;;;;;;;5.20;1.60;;;15.80;99.90;;;;;;4932255;29;20062;-58
2023/07/04 02:56:34;;;;;;;9.80;2.10;;;15.80;99.90;;;;;;4932351;29;20086;-58
2023/07/04 02:58:59;;;;;;;5.00;1.90;;;15.80;99.90;;;;;;4932352;29;20036;-58
2023/07/04 03:01:25;;;;;;;8.13;1.73;;;15.70;99.90;;;;;;4932138;29;20317;-59
2023/07/04 03:03:51;;;;;;;4.43;1.55;;;15.70;99.90;;;;;;4931193;29;20040;-57
2023/07/04 03:06:17;;;;;;;8.52;2.20;;;15.80;99.90;;;;;;4932370;29;20032;-58
2023/07/04 03:08:45;;;;;;;11.05;2.03;;;15.80;99.90;;;;;;4932246;29;20083;-55
2023/07/04 03:11:11;;;;;;;9.93;2.25;;;15.80;99.90;;;;;;4932433;29;20119;-58
2023/07/04 03:13:37;;;;;;;13.30;2.45;;;15.80;99.90;;;;;;4931869;29;20497;-57
2023/07/04 03:16:04;;;;;;;7.18;2.10;;;15.80;99.90;;;;;;4933423;29;20032;-54
2023/07/04 03:18:32;;;;;;;5.57;1.75;;;15.70;99.90;;;;;;4932149;28;20616;-56
2023/07/04 03:20:58;;;;;;;7.15;2.30;;;15.70;99.90;;;;;;4932543;29;20079;-55
2023/07/04 03:23:23;;;;;;;5.28;1.80;;;15.70;99.90;;;;;;4928202;29;20485;-54
2023/07/04 03:25:49;;;;;;;9.07;2.50;;;15.70;99.90;;;;;;4922689;29;20032;-56
2023/07/04 03:28:16;;;;;;;7.47;2.20;;;15.70;99.90;;;;;;4927119;29;20385;-56
2023/07/04 03:30:42;;;;;;;8.40;1.95;;;15.60;99.90;;;;;;4926775;29;20032;-57
2023/07/04 03:33:10;;;;;;;10.35;2.92;;;15.60;99.90;;;;;;4921412;29;20031;-54
2023/07/04 03:35:40;;;;;;;8.82;1.83;;;15.60;99.90;;;;;;4925344;29;20043;-56
2023/07/04 03:38:05;;;;;;;;;;;15.70;99.90;;;;;;4926725;29;20067;-54
2023/07/04 03:40:31;;;;;;;11.57;1.83;;;15.60;99.90;;;;;;4925547;29;20458;-55
2023/07/04 03:42:57;;;;;;;10.65;2.47;;;15.60;99.90;;;;;;4927289;29;20043;-58
2023/07/04 03:45:22;;;;;;;8.98;2.22;;;15.60;99.90;;;;;;4929820;29;20107;-59
2023/07/04 03:47:48;;;;;;;10.65;1.98;;;15.60;99.90;;;;;;4924445;29;20055;-57
2023/07/04 03:50:13;;;;;;;8.82;2.00;;;15.50;99.90;;;;;;4926409;29;20020;-55
2023/07/04 03:52:42;;;;;;;8.30;2.22;;;15.50;99.90;;;;;;4926819;29;20079;-54
2023/07/04 03:55:08;;;;;;;11.18;2.53;;;15.50;99.90;;;;;;4929240;29;20043;-59
2023/07/04 03:57:34;;;;;;;12.75;3.58;;;15.40;99.90;;;;;;4927110;29;20110;-56
2023/07/04 04:00:00;;;;;;;13.98;3.28;;;15.40;99.90;;;;;;4927858;29;20111;-54
2023/07/04 04:02:26;;;;;;;8.25;2.10;;;15.40;99.90;;;;;;4924073;29;20481;-56
2023/07/04 04:04:51;;;;;;;9.57;2.75;;;15.40;99.90;;;;;;4919803;29;20450;-56
2023/07/04 04:07:17;;;;;;;8.52;2.30;;;15.50;99.90;;;;;;4919398;29;20457;-55
2023/07/04 04:09:43;;;;;;;13.45;2.58;;;15.50;99.90;;;;;;4920192;29;20060;-57
2023/07/04 04:12:09;;;;;;;11.50;2.90;;;15.50;99.90;;;;;;4924392;29;20453;-57
2023/07/04 04:14:36;;;;;;;8.93;1.98;;;15.50;99.90;;;;;;4927699;29;20036;-55
2023/07/04 04:17:03;;;;;;;11.43;2.40;;;15.50;99.90;;;;;;4928217;29;20063;-56
2023/07/04 04:19:29;;;;;;;8.65;2.22;;;15.50;99.90;;;;;;4924666;29;20074;-55
2023/07/04 04:21:55;;;;;;;6.55;1.52;;;15.40;99.90;;;;;;4926055;29;20481;-55
2023/07/04 04:24:22;;;;;;;9.02;2.03;;;15.40;99.90;;;;;;4930544;29;20171;-56
2023/07/04 04:26:48;;;;;;;7.93;2.60;;;15.50;99.90;;;;;;4927065;29;20023;-53
2023/07/04 04:29:17;;;;;;;7.70;1.90;;;15.40;99.90;;;;;;4929442;29;20044;-56
2023/07/04 04:31:43;;;;;;;7.13;2.63;;;15.50;99.90;;;;;;4929878;29;20031;-55
2023/07/04 04:34:09;;;;;;;4.93;1.75;;;15.50;99.90;;;;;;4930350;29;20448;-55
2023/07/04 04:36:35;;;;;;;6.43;1.90;;;15.50;99.90;;;;;;4923333;29;20028;-58
2023/07/04 04:39:01;;;;;;;6.72;1.58;;;15.50;99.90;;;;;;4928660;29;20031;-57
2023/07/04 04:41:29;;;;;;;8.23;2.10;;;15.50;99.90;;;;;;4924113;29;20394;-57
2023/07/04 04:43:56;;;;;;;8.13;2.03;;;15.50;99.90;;;;;;4926457;29;20043;-57
2023/07/04 04:46:21;;;;;;;7.30;1.90;;;15.60;99.90;;;;;;4920805;29;20488;-55
2023/07/04 04:48:47;;;;;;;9.15;2.22;;;15.60;99.90;;;;;;4923133;29;20032;-54
2023/07/04 04:51:13;;;;;;;5.25;2.13;;;15.60;99.90;;;;;;4918403;29;20032;-58
2023/07/04 04:53:41;;;;;;;8.80;1.95;;;15.70;99.90;;;;;;4919109;29;20466;-56
2023/07/04 04:56:10;;;;;;;12.25;2.30;;;15.70;99.90;;;;;;4918223;29;20028;-57
2023/07/04 04:58:36;;;;;;;6.47;2.13;;;15.70;99.90;;;;;;4926666;29;20046;-56
2023/07/04 05:01:24;;;;;;;7.68;2.13;;;15.70;99.90;;;;;;4931454;29;20031;-54
2023/07/04 05:03:52;;;;;;;7.85;2.13;;;15.70;99.90;;;;;;4928832;29;20023;-59
2023/07/04 05:06:19;;;;;;;9.65;2.58;;;15.80;99.90;;;;;;4922430;29;20097;-59
2023/07/04 05:08:44;;;;;;;6.55;1.73;;;15.80;99.90;;;;;;4922120;29;20473;-56
2023/07/04 05:11:10;;;;;;;5.50;1.98;;;15.90;99.90;;;;;;4925841;29;20039;-55
2023/07/04 05:13:37;;;;;;;7.20;2.25;;;15.90;99.90;;;;;;4931039;29;20058;-57
2023/07/04 05:16:06;;;;;;;7.75;2.10;;;15.90;99.90;;;;;;4925104;29;20497;-57
2023/07/04 05:18:34;;;;;;;6.07;1.98;;;15.90;99.90;;;;;;4932978;29;20023;-59
2023/07/04 05:21:23;;;;;;;8.85;2.22;;;15.90;99.90;;;;;;4929257;29;20024;-59
2023/07/04 05:23:52;;;;;;;7.32;1.65;;;15.90;99.90;;;;;;4908897;29;20099;-58
2023/07/04 05:26:19;;;;;;;9.23;2.10;;;15.90;99.90;;;;;;4928175;29;20179;-59
2023/07/04 05:28:45;;;;;;;6.57;1.92;;;16.00;99.90;;;;;;4925738;29;20028;-58
2023/07/04 05:31:15;;;;;;;5.63;1.77;;;16.10;99.90;;;;;;4928661;29;20107;-59
2023/07/04 05:33:42;;;;;;;7.07;2.03;;;16.20;99.90;;;;;;4928967;29;20103;-58
2023/07/04 05:36:10;;;;;;;9.30;2.17;;;16.20;99.90;;;;;;4928856;29;20035;-59
2023/07/04 05:38:37;;;;;;;7.50;2.40;;;16.20;99.90;;;;;;4918530;29;20032;-58
2023/07/04 05:41:09;;;;;;;9.45;3.25;;;16.30;99.90;;;;;;4917470;29;20055;-58
2023/07/04 05:43:36;;;;;;;4.85;2.30;;;16.30;99.90;;;;;;4920980;29;20545;-55
2023/07/04 05:46:01;;;;;;;16.45;6.18;;;16.30;99.90;;;;;;4923674;29;20032;-58
2023/07/04 05:48:27;;;;;;;8.20;2.90;;;16.30;99.90;;;;;;4925369;29;20054;-59
2023/07/04 05:50:55;;;;;;;10.77;2.25;;;16.20;99.90;;;;;;4920201;29;20024;-59
2023/07/04 05:53:24;;;;;;;11.70;2.50;;;16.20;99.90;;;;;;4926831;29;20075;-57
2023/07/04 05:55:51;;;;;;;10.13;2.30;;;16.20;99.90;;;;;;4917055;29;20034;-59
2023/07/04 05:58:18;;;;;;;12.32;2.63;;;16.30;99.90;;;;;;4928448;29;20032;-57
2023/07/04 06:00:47;;;;;;;8.85;2.20;;;16.30;99.90;;;;;;4916716;29;20059;-58
2023/07/04 06:03:17;;;;;;;9.35;3.00;;;16.40;99.90;;;;;;4925082;29;20114;-57
2023/07/04 06:05:43;;;;;;;8.45;2.10;;;16.50;99.90;;;;;;4928467;29;20027;-55
2023/07/04 06:08:09;;;;;;;8.20;2.00;;;16.50;99.90;;;;;;4920765;29;20091;-58
2023/07/04 06:10:35;;;;;;;9.63;2.20;;;16.60;99.90;;;;;;4924528;29;20035;-54
2023/07/04 06:13:01;;;;;;;7.05;2.10;;;16.70;99.90;;;;;;4918159;29;20132;-58
2023/07/04 06:15:27;;;;;;;4.43;2.05;;;16.80;99.90;;;;;;4930835;29;20028;-58
2023/07/04 06:17:53;;;;;;;6.20;2.22;;;16.80;99.90;;;;;;4920732;29;20099;-51
2023/07/04 06:20:20;;;;;;;10.73;2.80;;;16.80;99.90;;;;;;4924287;29;20031;-53
2023/07/04 06:22:45;;;;;;;8.90;2.70;;;16.80;99.90;;;;;;4927796;29;20031;-56
2023/07/04 06:25:11;;;;;;;9.43;2.50;;;17.00;99.90;;;;;;4913167;29;20416;-55
2023/07/04 06:27:36;;;;;;;9.10;2.83;;;17.00;99.90;;;;;;4919701;29;20044;-56
2023/07/04 06:30:03;;;;;;;12.82;3.50;;;16.90;99.90;;;;;;4926413;29;20035;-55
2023/07/04 06:32:29;;;;;;;10.13;3.92;;;16.80;99.90;;;;;;4919970;29;20083;-57
2023/07/04 06:34:55;;;;;;;5.75;2.30;;;16.70;99.90;;;;;;4927475;29;20496;-58
2023/07/04 06:37:20;;;;;;;9.95;2.80;;;16.50;99.90;;;;;;4923581;29;20290;-58
2023/07/04 06:39:46;;;;;;;7.50;2.70;;;16.50;99.90;;;;;;4927229;29;20028;-54
2023/07/04 06:42:11;;;;;;;9.68;2.78;;;16.50;99.90;;;;;;4928545;29;20034;-58
2023/07/04 06:44:45;;;;;;;9.88;2.95;;;16.50;99.90;;;;;;4928980;29;20229;-57
2023/07/04 06:47:10;;;;;;;;;;;16.70;99.90;;;;;;4928210;29;20383;-53
2023/07/04 06:49:36;;;;;;;9.10;3.08;;;16.90;99.90;;;;;;4930431;29;19918;-54
2023/07/04 06:52:02;;;;;;;9.40;2.67;;;17.00;99.90;;;;;;4922703;29;20106;-54
2023/07/04 06:54:27;;;;;;;6.15;2.50;;;17.10;99.90;;;;;;4926354;29;20032;-54
2023/07/04 06:56:53;;;;;;;12.25;3.08;;;17.20;99.90;;;;;;4919016;29;20031;-55
2023/07/04 06:59:18;;;;;;;9.25;2.70;;;17.20;99.90;;;;;;4916294;29;20043;-54
2023/07/04 07:01:44;;;;;;;9.60;2.42;;;17.30;99.90;;;;;;4926958;29;20034;-54
2023/07/04 07:04:12;;;;;;;7.63;2.47;;;17.30;99.90;;;;;;4927753;29;20075;-55
2023/07/04 07:06:39;;;;;;;11.50;2.42;;;17.30;99.90;;;;;;4932296;29;20044;-55
2023/07/04 07:09:08;;;;;;;8.07;3.38;;;17.30;99.90;;;;;;4930117;29;20049;-54
2023/07/04 07:11:34;;;;;;;9.75;2.40;;;17.40;99.90;;;;;;4922682;29;20032;-54
2023/07/04 07:14:00;;;;;;;5.70;2.35;;;17.60;99.90;;;;;;4926161;29;20071;-57
2023/07/04 07:16:26;;;;;;;7.25;2.40;;;17.80;99.90;;;;;;4923626;29;20083;-54
2023/07/04 07:18:53;;;;;;;9.68;2.00;;;17.80;99.90;;;;;;4920341;29;20032;-51
2023/07/04 07:21:22;;;;;;;9.68;2.20;;;17.80;99.90;;;;;;4926375;29;20063;-52
2023/07/04 07:23:49;;;;;;;7.90;2.55;;;17.80;99.90;;;;;;4923678;29;20071;-56
2023/07/04 07:26:18;;;;;;;4.75;1.73;;;17.90;99.90;;;;;;4923520;29;20055;-56
2023/07/04 07:28:44;;;;;;;8.52;2.08;;;18.10;99.90;;;;;;4920191;29;20044;-59
2023/07/04 07:31:13;;;;;;;9.15;2.08;;;18.10;99.90;;;;;;4915018;29;20418;-58
2023/07/04 07:33:40;;;;;;;7.50;2.15;;;18.10;99.90;;;;;;4925479;29;20488;-59
2023/07/04 07:36:14;;;;;;;9.23;2.17;;;18.10;99.90;;;;;;4920568;29;20040;-59
2023/07/04 07:38:40;;;;;;;5.10;2.05;;;18.30;99.90;;;;;;4930698;29;20032;-58
2023/07/04 07:41:07;;;;;;;8.57;2.35;;;18.20;99.90;;;;;;4930596;29;20023;-58
2023/07/04 07:43:34;;;;;;;5.93;2.03;;;18.20;99.90;;;;;;4921939;29;20036;-59
2023/07/04 07:45:59;;;;;;;5.07;1.75;;;18.30;99.60;;;;;;4926315;29;20086;-57
2023/07/04 07:48:25;;;;;;;7.90;1.90;;;18.40;99.40;;;;;;4921578;29;20039;-58
2023/07/04 07:50:50;;;;;;;8.75;1.90;;;18.40;99.20;;;;;;4923632;29;20155;-56
2023/07/04 07:53:16;;;;;;;7.15;2.15;;;18.50;99.70;;;;;;4926014;29;20040;-58
2023/07/04 07:55:42;;;;;;;7.20;2.03;;;18.50;99.90;;;;;;4930616;29;20028;-55
2023/07/04 07:58:08;;;;;;;8.18;2.15;;;18.50;99.60;;;;;;4927630;29;20027;-58
2023/07/04 08:00:34;;;;;;;6.70;1.70;;;18.30;99.40;;;;;;4923178;29;20024;-58
2023/07/04 08:03:00;;;;;;;21.50;9.32;;;18.30;99.20;;;;;;4920040;29;20031;-58
2023/07/04 08:05:25;;;;;;;9.57;2.72;;;18.30;99.10;;;;;;4926247;29;20517;-58
2023/07/04 08:07:51;;;;;;;10.82;3.38;;;18.30;99.00;;;;;;4929851;29;20027;-55
2023/07/04 08:10:17;;;;;;;11.38;4.47;;;18.50;99.70;;;;;;4929855;29;20024;-59
2023/07/04 08:12:43;;;;;;;10.77;4.00;;;18.60;99.00;;;;;;4929506;29;20059;-59
2023/07/04 08:15:10;;;;;;;7.85;3.30;;;18.70;97.80;;;;;;4921839;29;20122;-59
2023/07/04 08:17:36;;;;;;;6.70;1.88;;;18.90;98.60;;;;;;4929932;29;20091;-56
2023/07/04 08:20:03;;;;;;;9.27;1.92;;;19.00;97.40;;;;;;4926049;29;20071;-59
2023/07/04 08:22:29;;;;;;;7.13;1.73;;;19.10;97.90;;;;;;4930360;29;20142;-58
2023/07/04 08:24:55;;;;;;;7.50;2.20;;;19.20;96.80;;;;;;4928960;29;20140;-58
2023/07/04 08:27:24;;;;;;;4.93;1.70;;;19.20;96.80;;;;;;4923191;29;20137;-57
2023/07/04 08:29:50;;;;;;;11.82;2.65;;;19.10;96.90;;;;;;4930277;29;20480;-56
2023/07/04 08:32:17;;;;;;;5.78;1.70;;;19.10;97.20;;;;;;4926573;29;20493;-56
2023/07/04 08:34:45;;;;;;;4.43;1.33;;;19.10;95.40;;;;;;4926148;29;20095;-57
2023/07/04 08:37:11;;;;;;;5.00;1.40;;;19.10;94.50;;;;;;4922125;29;20035;-58
2023/07/04 08:39:37;;;;;;;6.45;1.80;;;19.20;95.30;;;;;;4925301;29;21082;-58
2023/07/04 08:42:06;;;;;;;2.92;1.23;;;19.20;95.20;;;;;;4927363;29;20028;-58
2023/07/04 08:44:36;;;;;;;6.70;1.67;;;19.20;95.20;;;;;;4918626;29;20481;-54
2023/07/04 08:47:02;;;;;;;5.63;1.30;;;19.40;95.50;;;;;;4924216;29;20040;-58
2023/07/04 08:49:48;;;;;;;4.85;1.27;;;19.40;95.10;;;;;;4928492;29;20036;-55
2023/07/04 08:52:37;;;;;;;3.92;1.40;;;19.20;94.90;;;;;;4921630;29;20027;-58
2023/07/04 08:55:07;;;;;;;5.55;1.30;;;19.20;94.20;;;;;;4925244;29;20556;-57
2023/07/04 08:57:42;;;;;;;4.35;1.08;;;19.30;94.00;;;;;;4927418;29;20508;-58
2023/07/04 09:00:25;;;;;;;4.57;1.25;;;19.40;94.60;;;;;;4928701;29;20032;-58
2023/07/04 09:03:13;;;;;;;4.78;1.80;;;19.60;94.50;;;;;;4917733;29;20036;-58
2023/07/04 09:05:53;;;;;;;8.63;2.08;;;19.60;94.30;;;;;;4928451;29;20040;-58
2023/07/04 09:08:40;;;;;;;5.55;2.30;;;19.70;93.90;;;;;;4921605;29;20028;-57
2023/07/04 09:11:11;;;;;;;7.72;2.10;;;19.80;93.10;;;;;;4925374;29;20035;-58
2023/07/04 09:13:42;;;;;;;3.53;1.30;;;19.70;93.10;;;;;;4926500;29;20066;-57
2023/07/04 09:16:16;;;;;;;5.75;1.42;;;19.80;93.20;;;;;;4917278;29;20134;-57
2023/07/04 09:19:00;;;;;;;4.88;1.75;;;19.80;92.90;;;;;;4925115;29;20044;-58
2023/07/04 09:21:28;;;;;;;5.35;0.93;;;19.80;93.30;;;;;;4925805;29;20035;-57
2023/07/04 09:23:56;;;;;;;4.28;1.45;;;20.00;92.30;;;;;;4923594;29;20039;-57
2023/07/04 09:26:25;;;;;;;4.30;1.58;;;20.00;92.00;;;;;;4928887;29;20028;-57
2023/07/04 09:28:52;;;;;;;3.28;1.60;;;20.00;92.00;;;;;;4929053;29;20028;-56
2023/07/04 09:31:29;;;;;;;2.88;1.20;;;20.30;92.10;;;;;;4921678;29;20047;-56
2023/07/04 09:33:55;;;;;;;7.07;1.50;;;20.20;92.00;;;;;;4913483;29;20028;-57
2023/07/04 09:36:26;;;;;;;4.28;1.50;;;20.20;91.80;;;;;;4925638;29;20024;-58
2023/07/04 09:39:04;;;;;;;3.75;1.50;;;20.20;91.30;;;;;;4928292;29;20035;-58
2023/07/04 09:41:33;;;;;;;5.95;1.30;;;20.30;91.40;;;;;;4921453;29;20032;-58
2023/07/04 09:44:17;;;;;;;2.97;0.98;;;20.50;90.50;;;;;;4922634;29;20500;-56
2023/07/04 09:46:53;;;;;;;2.65;1.08;;;20.50;90.70;;;;;;4925349;29;20560;-57
2023/07/04 09:49:35;;;;;;;4.10;1.15;;;20.40;90.50;;;;;;4929191;29;20077;-58
2023/07/04 09:52:17;;;;;;;2.78;1.50;;;20.50;90.50;;;;;;4922352;29;20046;-58
2023/07/04 09:54:44;;;;;;;5.97;1.55;;;20.60;90.40;;;;;;4931968;29;20034;-55
2023/07/04 09:57:26;;;;;;;4.75;1.35;;;20.60;90.30;;;;;;4921525;29;20093;-57
2023/07/04 09:59:54;;;;;;;4.30;1.30;;;20.60;89.20;;;;;;4932298;29;20124;-54
2023/07/04 10:02:28;;;;;;;4.25;1.48;;;20.70;88.90;;;;;;4924161;29;20035;-58
2023/07/04 10:04:53;;;;;;;4.15;1.25;;;20.80;88.80;;;;;;4921446;29;20079;-58
2023/07/04 10:07:24;;;;;;;5.60;1.40;;;20.70;89.00;;;;;;4920344;29;20028;-57
2023/07/04 10:09:55;;;;;;;4.25;1.50;;;20.70;90.20;;;;;;4928242;29;20171;-56
2023/07/04 10:12:21;;;;;;;7.55;1.70;;;20.80;90.40;;;;;;4931682;29;20030;-56
2023/07/04 10:14:50;;;;;;;6.88;1.77;;;20.90;90.30;;;;;;4924366;29;20032;-55
2023/07/04 10:17:21;;;;;;;6.95;2.50;;;21.10;86.80;;;;;;4924822;29;20270;-55
2023/07/04 10:19:50;;;;;;;4.47;1.17;;;21.20;87.40;;;;;;4924604;29;20083;-52
2023/07/04 10:22:29;;;;;;;5.20;1.52;;;21.30;86.90;;;;;;4927796;29;20087;-55
2023/07/04 10:24:58;;;;;;;5.43;1.98;;;21.30;87.50;;;;;;4925273;29;20046;-56
2023/07/04 10:27:32;;;;;;;4.05;1.40;;;21.40;84.50;;;;;;4923439;29;20070;-56
2023/07/04 10:30:00;;;;;;;5.70;1.42;;;21.30;84.90;;;;;;4925014;29;20044;-57
2023/07/04 10:32:26;;;;;;;3.22;1.10;;;21.40;85.40;;;;;;4920623;29;20357;-57
2023/07/04 10:34:52;;;;;;;3.58;1.30;;;21.50;85.60;;;;;;4920451;29;20134;-58
2023/07/04 10:37:31;;;;;;;5.95;1.30;;;21.50;85.70;;;;;;4924670;29;20021;-57
2023/07/04 10:39:59;;;;;;;;;;;21.70;86.80;;;;;;4921179;29;20032;-53
2023/07/04 10:42:47;;;;;;;2.65;1.13;;;21.50;85.70;;;;;;4928048;29;19918;-57
2023/07/04 10:45:15;;;;;;;4.63;1.27;;;21.50;86.50;;;;;;4927319;29;20019;-58
2023/07/04 10:47:42;;;;;;;6.20;1.60;;;21.50;85.40;;;;;;4928859;29;20127;-58
2023/07/04 10:50:14;;;;;;;4.05;1.45;;;21.50;85.50;;;;;;4922631;29;20142;-58
2023/07/04 10:52:43;;;;;;;4.60;1.48;;;21.70;86.50;;;;;;4931319;29;20055;-55
2023/07/04 10:55:42;;;;;;;4.35;1.30;;;21.80;84.50;;;;;;4930979;29;20067;-57
2023/07/04 10:58:20;;;;;;;3.72;1.95;;;21.80;83.70;;;;;;4914247;29;20048;-57
2023/07/04 11:00:54;;;;;;;5.43;1.02;;;21.80;83.00;;;;;;4920392;29;20046;-58
2023/07/04 11:03:34;;;;;;;6.88;1.40;;;21.90;84.80;;;;;;4923299;29;20389;-54
2023/07/04 11:06:03;;;;;;;7.57;1.48;;;22.00;84.60;;;;;;4922015;29;20454;-57
2023/07/04 11:08:33;;;;;;;3.35;1.13;;;22.00;85.00;;;;;;4928810;29;20119;-58
2023/07/04 11:11:06;;;;;;;5.72;1.42;;;21.90;86.30;;;;;;4924446;29;20040;-57
2023/07/04 11:13:33;;;;;;;3.15;1.30;;;21.90;84.70;;;;;;4916186;29;20071;-58
2023/07/04 11:16:05;;;;;;;6.18;1.38;;;21.90;83.00;;;;;;4924466;29;20106;-58
2023/07/04 11:18:37;;;;;;;6.55;1.35;;;21.80;83.80;;;;;;4925531;29;20440;-59
2023/07/04 11:21:10;;;;;;;3.13;1.00;;;21.80;83.70;;;;;;4921524;29;20066;-57
2023/07/04 11:24:07;;;;;;;5.85;1.40;;;21.70;83.50;;;;;;4918364;29;20039;-58
2023/07/04 11:27:05;;;;;;;4.70;1.20;;;21.70;84.00;;;;;;4923286;29;20341;-57
2023/07/04 11:29:53;;;;;;;2.78;0.90;;;21.90;84.00;;;;;;4915533;29;20036;-55
2023/07/04 11:32:22;;;;;;;12.73;1.60;;;22.00;84.60;;;;;;4932511;29;20477;-53
2023/07/04 11:34:51;;;;;;;2.28;1.20;;;22.10;83.50;;;;;;4918423;29;20175;-56
2023/07/04 11:37:30;;;;;;;5.07;1.15;;;22.10;82.40;;;;;;4926785;29;20066;-54
2023/07/04 11:39:58;;;;;;;5.10;1.30;;;22.10;83.20;;;;;;4915977;29;20036;-53
2023/07/04 11:42:41;;;;;;;4.22;1.00;;;22.30;83.60;;;;;;4919179;29;20027;-59
2023/07/04 11:45:13;;;;;;;5.00;1.42;;;22.30;83.50;;;;;;4927024;29;20143;-57
2023/07/04 11:47:47;;;;;;;4.90;1.63;;;22.10;84.20;;;;;;4928670;29;20031;-59
2023/07/04 11:50:18;;;;;;;3.97;1.85;;;22.00;84.20;;;;;;4930961;29;20028;-58
2023/07/04 11:52:59;;;;;;;4.28;1.70;;;22.10;83.40;;;;;;4927562;29;20067;-58
2023/07/04 11:55:35;;;;;;;3.78;1.48;;;22.00;83.20;;;;;;4920447;29;20036;-58
2023/07/04 11:58:06;;;;;;;5.22;1.60;;;22.00;85.70;;;;;;4931021;29;20046;-58
2023/07/04 12:00:38;;;;;;;6.85;1.90;;;22.10;83.60;;;;;;4926746;29;20020;-58
2023/07/04 12:03:19;;;;;;;6.20;1.88;;;22.00;82.70;;;;;;4921727;29;20084;-58
2023/07/04 12:05:53;;;;;;;5.90;1.42;;;22.00;84.20;;;;;;4926793;29;20549;-58
2023/07/04 12:08:50;;;;;;;4.72;1.70;;;22.00;83.60;;;;;;4933115;29;20050;-59
2023/07/04 12:11:26;;;;;;;4.28;1.58;;;22.10;83.70;;;;;;4914669;29;20071;-58
2023/07/04 12:13:52;;;;;;;4.35;1.80;;;22.10;83.90;;;;;;4922875;29;20035;-58
2023/07/04 12:16:23;;;;;;;6.43;2.17;;;22.20;84.20;;;;;;4923584;29;20472;-58
2023/07/04 12:18:49;;;;;;;3.80;1.75;;;22.20;83.20;;;;;;4926794;29;20344;-59
2023/07/04 12:21:19;;;;;;;5.00;1.58;;;22.20;82.60;;;;;;4926641;29;20099;-59
2023/07/04 12:23:46;;;;;;;5.57;1.65;;;22.30;83.80;;;;;;4926342;29;20135;-58
2023/07/04 12:26:21;;;;;;;3.35;1.67;;;22.40;82.90;;;;;;4924919;29;20087;-59
2023/07/04 12:28:47;;;;;;;3.53;1.60;;;22.50;83.70;;;;;;4919578;29;20032;-59
2023/07/04 12:31:14;;;;;;;5.80;1.77;;;22.30;83.00;;;;;;4917986;29;20463;-59
2023/07/04 12:33:44;;;;;;;4.82;1.60;;;22.20;82.70;;;;;;4919262;29;20040;-59
2023/07/04 12:36:13;;;;;;;5.13;1.70;;;22.10;82.80;;;;;;4926312;29;20032;-59
2023/07/04 12:38:48;;;;;;;;;;;22.10;82.60;;;;;;4923381;29;20611;-59
2023/07/04 12:41:19;;;;;;;6.13;1.80;;;22.10;82.40;;;;;;4922440;29;20365;-59
2023/07/04 12:43:51;;;;;;;5.45;2.00;;;22.00;83.30;;;;;;4926648;29;20039;-59
2023/07/04 12:46:20;;;;;;;6.28;2.38;;;22.20;83.20;;;;;;4922694;29;20046;-59
2023/07/04 12:48:47;;;;;;;5.30;2.13;;;22.30;83.00;;;;;;4926334;29;20070;-58
2023/07/04 12:51:19;;;;;;;7.28;1.90;;;22.40;83.10;;;;;;4926607;29;20553;-59
2023/07/04 12:53:45;;;;;;;4.35;1.45;;;22.40;81.90;;;;;;4921974;29;20027;-57
2023/07/04 12:56:13;;;;;;;6.38;2.30;;;22.40;83.00;;;;;;4921866;29;20095;-59
2023/07/04 12:58:43;;;;;;;7.53;1.85;;;22.40;83.30;;;;;;4926783;29;20516;-59